sensor_id;sensor_type;location;lat;lon;timestamp;pressure;altitude;pressure_sealevel;temperature;humidity
45621;BME280;31345;51.522;10.702;2023-07-24T00:00:06;98206.63;;;18.25;100.00
45621;BME280;31345;51.522;10.702;2023-07-24T00:02:34;98202.00;;;18.19;100.00
45621;BME280;31345;51.522;10.702;2023-07-24T00:05:02;98199.84;;;18.14;100.00
45621;BME280;31345;51.522;10.702;2023-07-24T00:07:34;98207.66;;;18.07;100.00
45621;BME280;31345;51.522;10.702;2023-07-24T00:10:02;98186.53;;;17.99;100.00
45621;BME280;31345;51.522;10.702;2023-07-24T00:12:30;98181.41;;;17.97;100.00
45621;BME280;31345;51.522;10.702;2023-07-24T00:15:00;98175.53;;;17.87;100.00
45621;BME280;31345;51.522;10.702;2023-07-24T00:17:32;98184.69;;;17.59;100.00
45621;BME280;31345;51.522;10.702;2023-07-24T00:20:00;98173.78;;;17.62;100.00
45621;BME280;31345;51.522;10.702;2023-07-24T00:22:32;98176.41;;;17.62;100.00
45621;BME280;31345;51.522;10.702;2023-07-24T00:25:05;98175.63;;;17.62;100.00
45621;BME280;31345;51.522;10.702;2023-07-24T00:27:40;98163.69;;;17.66;100.00
45621;BME280;31345;51.522;10.702;2023-07-24T00:30:09;98151.28;;;17.67;100.00
45621;BME280;31345;51.522;10.702;2023-07-24T00:32:42;98159.75;;;17.54;100.00
45621;BME280;31345;51.522;10.702;2023-07-24T00:35:10;98160.88;;;17.59;100.00
45621;BME280;31345;51.522;10.702;2023-07-24T00:37:42;98161.91;;;17.50;100.00
45621;BME280;31345;51.522;10.702;2023-07-24T00:40:15;98159.94;;;17.52;100.00
45621;BME280;31345;51.522;10.702;2023-07-24T00:42:46;98155.78;;;17.49;100.00
45621;BME280;31345;51.522;10.702;2023-07-24T00:45:15;98157.09;;;17.62;100.00
45621;BME280;31345;51.522;10.702;2023-07-24T00:47:48;98156.78;;;17.48;100.00
45621;BME280;31345;51.522;10.702;2023-07-24T00:50:21;98164.88;;;17.30;100.00
45621;BME280;31345;51.522;10.702;2023-07-24T00:52:49;98165.38;;;17.26;100.00
45621;BME280;31345;51.522;10.702;2023-07-24T00:55:22;98169.88;;;17.25;100.00
45621;BME280;31345;51.522;10.702;2023-07-24T00:57:50;98168.03;;;17.26;100.00
45621;BME280;31345;51.522;10.702;2023-07-24T01:00:20;98162.91;;;17.16;100.00
45621;BME280;31345;51.522;10.702;2023-07-24T01:02:48;98165.72;;;16.97;100.00
45621;BME280;31345;51.522;10.702;2023-07-24T01:05:16;98168.22;;;16.91;100.00
45621;BME280;31345;51.522;10.702;2023-07-24T01:07:49;98160.97;;;17.09;100.00
45621;BME280;31345;51.522;10.702;2023-07-24T01:10:17;98168.56;;;16.96;100.00
45621;BME280;31345;51.522;10.702;2023-07-24T01:12:53;98180.09;;;17.03;100.00
45621;BME280;31345;51.522;10.702;2023-07-24T01:15:28;98179.44;;;17.01;100.00
45621;BME280;31345;51.522;10.702;2023-07-24T01:17:59;98175.81;;;16.94;100.00
45621;BME280;31345;51.522;10.702;2023-07-24T01:20:29;98174.97;;;16.77;100.00
45621;BME280;31345;51.522;10.702;2023-07-24T01:23:14;98172.84;;;16.80;100.00
45621;BME280;31345;51.522;10.702;2023-07-24T01:25:56;98166.06;;;16.78;100.00
45621;BME280;31345;51.522;10.702;2023-07-24T01:28:29;98169.22;;;16.98;100.00
45621;BME280;31345;51.522;10.702;2023-07-24T01:30:57;98165.75;;;16.89;100.00
45621;BME280;31345;51.522;10.702;2023-07-24T01:33:29;98165.72;;;16.72;100.00
45621;BME280;31345;51.522;10.702;2023-07-24T01:36:02;98168.22;;;16.66;100.00
45621;BME280;31345;51.522;10.702;2023-07-24T01:38:31;98166.06;;;16.69;100.00
45621;BME280;31345;51.522;10.702;2023-07-24T01:41:03;98168.88;;;16.16;100.00
45621;BME280;31345;51.522;10.702;2023-07-24T01:43:36;98167.59;;;16.20;100.00
45621;BME280;31345;51.522;10.702;2023-07-24T01:46:04;98171.38;;;16.18;100.00
45621;BME280;31345;51.522;10.702;2023-07-24T01:48:31;98178.38;;;16.01;100.00
45621;BME280;31345;51.522;10.702;2023-07-24T01:50:59;98180.91;;;16.11;100.00
45621;BME280;31345;51.522;10.702;2023-07-24T01:53:31;98180.09;;;16.10;100.00
45621;BME280;31345;51.522;10.702;2023-07-24T01:55:59;98180.00;;;15.93;100.00
45621;BME280;31345;51.522;10.702;2023-07-24T01:58:33;98188.72;;;15.86;100.00
45621;BME280;31345;51.522;10.702;2023-07-24T02:01:05;98183.88;;;15.73;100.00
45621;BME280;31345;51.522;10.702;2023-07-24T02:03:38;98187.50;;;15.72;100.00
45621;BME280;31345;51.522;10.702;2023-07-24T02:06:11;98183.38;;;15.69;100.00
45621;BME280;31345;51.522;10.702;2023-07-24T02:08:44;98188.53;;;15.79;100.00
45621;BME280;31345;51.522;10.702;2023-07-24T02:11:20;98185.69;;;15.72;100.00
45621;BME280;31345;51.522;10.702;2023-07-24T02:13:49;98185.34;;;15.75;100.00
45621;BME280;31345;51.522;10.702;2023-07-24T02:16:17;98182.53;;;15.68;100.00
45621;BME280;31345;51.522;10.702;2023-07-24T02:18:44;98183.94;;;15.54;100.00
45621;BME280;31345;51.522;10.702;2023-07-24T02:21:17;98177.06;;;15.62;100.00
45621;BME280;31345;51.522;10.702;2023-07-24T02:23:46;98179.31;;;15.48;100.00
45621;BME280;31345;51.522;10.702;2023-07-24T02:26:14;98173.66;;;15.43;100.00
45621;BME280;31345;51.522;10.702;2023-07-24T02:28:42;98170.66;;;15.38;100.00
45621;BME280;31345;51.522;10.702;2023-07-24T02:31:11;98169.06;;;15.45;100.00
45621;BME280;31345;51.522;10.702;2023-07-24T02:33:38;98172.34;;;15.47;100.00
45621;BME280;31345;51.522;10.702;2023-07-24T02:36:11;98167.25;;;15.46;100.00
45621;BME280;31345;51.522;10.702;2023-07-24T02:38:41;98170.41;;;15.49;100.00
45621;BME280;31345;51.522;10.702;2023-07-24T02:41:13;98170.06;;;15.44;100.00
45621;BME280;31345;51.522;10.702;2023-07-24T02:43:41;98155.09;;;15.53;100.00
45621;BME280;31345;51.522;10.702;2023-07-24T02:46:16;98161.81;;;15.47;100.00
45621;BME280;31345;51.522;10.702;2023-07-24T02:48:43;98153.34;;;15.62;100.00
45621;BME280;31345;51.522;10.702;2023-07-24T02:51:11;98158.84;;;15.42;100.00
45621;BME280;31345;51.522;10.702;2023-07-24T02:56:54;98153.06;;;15.12;100.00
45621;BME280;31345;51.522;10.702;2023-07-24T03:12:33;98151.44;;;15.19;100.00
45621;BME280;31345;51.522;10.702;2023-07-24T03:15:00;98148.75;;;15.11;100.00
45621;BME280;31345;51.522;10.702;2023-07-24T03:17:33;98138.94;;;15.48;100.00
45621;BME280;31345;51.522;10.702;2023-07-24T03:20:09;98147.38;;;15.25;100.00
45621;BME280;31345;51.522;10.702;2023-07-24T03:22:42;98144.38;;;15.20;100.00
45621;BME280;31345;51.522;10.702;2023-07-24T03:25:10;98142.94;;;15.25;100.00
45621;BME280;31345;51.522;10.702;2023-07-24T03:27:44;98137.56;;;15.35;100.00
45621;BME280;31345;51.522;10.702;2023-07-24T03:30:11;98143.97;;;15.33;100.00
45621;BME280;31345;51.522;10.702;2023-07-24T03:32:44;98141.38;;;15.41;100.00
45621;BME280;31345;51.522;10.702;2023-07-24T03:35:16;98145.47;;;15.35;100.00
45621;BME280;31345;51.522;10.702;2023-07-24T03:37:49;98137.75;;;15.42;100.00
45621;BME280;31345;51.522;10.702;2023-07-24T03:40:17;98129.63;;;15.62;100.00
45621;BME280;31345;51.522;10.702;2023-07-24T03:42:46;98129.13;;;15.58;100.00
45621;BME280;31345;51.522;10.702;2023-07-24T03:45:14;98119.13;;;15.70;100.00
45621;BME280;31345;51.522;10.702;2023-07-24T03:47:47;98122.78;;;15.77;100.00
45621;BME280;31345;51.522;10.702;2023-07-24T03:50:14;98123.63;;;15.78;100.00
45621;BME280;31345;51.522;10.702;2023-07-24T03:52:42;98124.09;;;15.73;100.00
45621;BME280;31345;51.522;10.702;2023-07-24T03:55:14;98123.25;;;15.73;100.00
45621;BME280;31345;51.522;10.702;2023-07-24T03:57:48;98122.84;;;15.94;100.00
45621;BME280;31345;51.522;10.702;2023-07-24T04:00:16;98110.69;;;16.01;100.00
45621;BME280;31345;51.522;10.702;2023-07-24T04:02:45;98104.25;;;15.95;100.00
45621;BME280;31345;51.522;10.702;2023-07-24T04:05:17;98108.16;;;15.83;100.00
45621;BME280;31345;51.522;10.702;2023-07-24T04:07:45;98105.31;;;15.68;100.00
45621;BME280;31345;51.522;10.702;2023-07-24T04:10:12;98101.41;;;15.80;100.00
45621;BME280;31345;51.522;10.702;2023-07-24T04:12:45;98103.06;;;15.90;100.00
45621;BME280;31345;51.522;10.702;2023-07-24T04:15:14;98106.03;;;15.95;100.00
45621;BME280;31345;51.522;10.702;2023-07-24T04:17:42;98100.25;;;15.83;100.00
45621;BME280;31345;51.522;10.702;2023-07-24T04:20:10;98108.81;;;15.85;100.00
45621;BME280;31345;51.522;10.702;2023-07-24T04:22:37;98100.25;;;15.83;100.00
45621;BME280;31345;51.522;10.702;2023-07-24T04:25:10;98098.28;;;15.93;100.00
45621;BME280;31345;51.522;10.702;2023-07-24T04:27:37;98091.84;;;15.88;100.00
45621;BME280;31345;51.522;10.702;2023-07-24T04:30:06;98091.38;;;15.92;100.00
45621;BME280;31345;51.522;10.702;2023-07-24T04:32:41;98093.66;;;15.79;100.00
45621;BME280;31345;51.522;10.702;2023-07-24T04:35:08;98094.00;;;15.92;100.00
45621;BME280;31345;51.522;10.702;2023-07-24T04:37:36;98083.16;;;15.95;100.00
45621;BME280;31345;51.522;10.702;2023-07-24T04:40:04;98081.81;;;15.83;100.00
45621;BME280;31345;51.522;10.702;2023-07-24T04:42:32;98083.84;;;16.06;100.00
45621;BME280;31345;51.522;10.702;2023-07-24T04:45:00;98095.88;;;16.08;100.00
45621;BME280;31345;51.522;10.702;2023-07-24T04:47:27;98091.94;;;16.13;100.00
45621;BME280;31345;51.522;10.702;2023-07-24T04:50:01;98102.31;;;16.14;100.00
45621;BME280;31345;51.522;10.702;2023-07-24T04:52:29;98093.25;;;16.08;100.00
45621;BME280;31345;51.522;10.702;2023-07-24T04:55:01;98093.75;;;16.20;100.00
45621;BME280;31345;51.522;10.702;2023-07-24T04:57:34;98101.97;;;16.17;100.00
45621;BME280;31345;51.522;10.702;2023-07-24T05:00:02;98094.91;;;16.18;100.00
45621;BME280;31345;51.522;10.702;2023-07-24T05:02:35;98091.75;;;16.06;100.00
45621;BME280;31345;51.522;10.702;2023-07-24T05:05:05;98082.72;;;16.17;100.00
45621;BME280;31345;51.522;10.702;2023-07-24T05:07:38;98088.16;;;16.24;100.00
45621;BME280;31345;51.522;10.702;2023-07-24T05:10:06;98081.88;;;16.25;100.00
45621;BME280;31345;51.522;10.702;2023-07-24T05:12:34;98064.94;;;16.36;100.00
45621;BME280;31345;51.522;10.702;2023-07-24T05:15:01;98059.50;;;16.54;100.00
45621;BME280;31345;51.522;10.702;2023-07-24T05:17:29;98064.94;;;16.85;100.00
45621;BME280;31345;51.522;10.702;2023-07-24T05:19:57;98066.84;;;17.25;100.00
45621;BME280;31345;51.522;10.702;2023-07-24T05:22:26;98068.09;;;17.54;100.00
45621;BME280;31345;51.522;10.702;2023-07-24T05:24:53;98060.38;;;17.84;100.00
45621;BME280;31345;51.522;10.702;2023-07-24T05:27:21;98057.56;;;18.09;100.00
45621;BME280;31345;51.522;10.702;2023-07-24T05:29:53;98059.69;;;18.37;100.00
45621;BME280;31345;51.522;10.702;2023-07-24T05:32:21;98051.28;;;18.57;100.00
45621;BME280;31345;51.522;10.702;2023-07-24T05:34:49;98057.53;;;18.80;100.00
45621;BME280;31345;51.522;10.702;2023-07-24T05:37:21;98055.47;;;19.05;100.00
45621;BME280;31345;51.522;10.702;2023-07-24T05:39:55;98041.31;;;19.13;100.00
45621;BME280;31345;51.522;10.702;2023-07-24T05:42:28;98041.22;;;19.21;100.00
45621;BME280;31345;51.522;10.702;2023-07-24T05:44:55;98047.25;;;19.45;100.00
45621;BME280;31345;51.522;10.702;2023-07-24T05:47:23;98052.75;;;19.59;100.00
45621;BME280;31345;51.522;10.702;2023-07-24T05:49:51;98049.00;;;19.53;100.00
45621;BME280;31345;51.522;10.702;2023-07-24T05:52:19;98035.19;;;19.42;100.00
45621;BME280;31345;51.522;10.702;2023-07-24T05:54:47;98025.78;;;19.40;100.00
45621;BME280;31345;51.522;10.702;2023-07-24T05:57:21;98022.94;;;19.41;100.00
45621;BME280;31345;51.522;10.702;2023-07-24T05:59:53;98028.88;;;19.43;100.00
45621;BME280;31345;51.522;10.702;2023-07-24T06:02:22;98032.09;;;19.39;100.00
45621;BME280;31345;51.522;10.702;2023-07-24T06:04:49;98018.66;;;19.25;100.00
45621;BME280;31345;51.522;10.702;2023-07-24T06:07:17;98016.09;;;19.17;100.00
45621;BME280;31345;51.522;10.702;2023-07-24T06:09:45;98015.28;;;19.16;100.00
45621;BME280;31345;51.522;10.702;2023-07-24T06:12:13;98001.94;;;19.25;100.00
45621;BME280;31345;51.522;10.702;2023-07-24T06:14:47;97989.56;;;19.47;100.00
45621;BME280;31345;51.522;10.702;2023-07-24T06:17:15;97996.50;;;19.63;100.00
45621;BME280;31345;51.522;10.702;2023-07-24T06:19:47;97999.31;;;19.77;100.00
45621;BME280;31345;51.522;10.702;2023-07-24T06:22:15;98004.31;;;19.87;100.00
45621;BME280;31345;51.522;10.702;2023-07-24T06:24:47;98003.72;;;19.91;100.00
45621;BME280;31345;51.522;10.702;2023-07-24T06:27:15;98007.47;;;19.97;100.00
45621;BME280;31345;51.522;10.702;2023-07-24T06:29:43;97994.84;;;19.99;100.00
45621;BME280;31345;51.522;10.702;2023-07-24T06:32:16;98006.38;;;19.91;100.00
45621;BME280;31345;51.522;10.702;2023-07-24T06:34:44;98006.66;;;19.97;100.00
45621;BME280;31345;51.522;10.702;2023-07-24T06:37:17;98017.00;;;19.91;100.00
45621;BME280;31345;51.522;10.702;2023-07-24T06:39:45;98015.41;;;19.97;100.00
45621;BME280;31345;51.522;10.702;2023-07-24T06:42:13;98011.91;;;20.12;100.00
45621;BME280;31345;51.522;10.702;2023-07-24T06:44:42;98003.47;;;20.08;100.00
45621;BME280;31345;51.522;10.702;2023-07-24T06:47:10;98011.56;;;20.00;98.25
45621;BME280;31345;51.522;10.702;2023-07-24T06:49:39;98009.25;;;20.12;98.02
45621;BME280;31345;51.522;10.702;2023-07-24T06:52:08;98010.06;;;20.34;95.75
45621;BME280;31345;51.522;10.702;2023-07-24T06:54:41;98017.47;;;20.39;96.31
45621;BME280;31345;51.522;10.702;2023-07-24T06:57:09;98014.72;;;20.54;97.05
45621;BME280;31345;51.522;10.702;2023-07-24T06:59:41;98013.56;;;20.63;96.66
45621;BME280;31345;51.522;10.702;2023-07-24T07:02:14;98009.69;;;20.94;95.71
45621;BME280;31345;51.522;10.702;2023-07-24T07:04:45;98005.94;;;21.11;95.27
45621;BME280;31345;51.522;10.702;2023-07-24T07:07:14;97995.16;;;21.26;90.55
45621;BME280;31345;51.522;10.702;2023-07-24T07:09:45;97976.34;;;21.27;87.94
45621;BME280;31345;51.522;10.702;2023-07-24T07:12:17;97969.81;;;21.30;88.13
45621;BME280;31345;51.522;10.702;2023-07-24T07:14:50;97962.31;;;21.47;85.19
45621;BME280;31345;51.522;10.702;2023-07-24T07:17:17;97948.69;;;21.64;86.38
45621;BME280;31345;51.522;10.702;2023-07-24T07:19:51;97944.41;;;21.69;84.03
45621;BME280;31345;51.522;10.702;2023-07-24T07:22:19;97933.56;;;21.91;83.38
45621;BME280;31345;51.522;10.702;2023-07-24T07:24:46;97939.09;;;21.96;81.27
45621;BME280;31345;51.522;10.702;2023-07-24T07:27:19;97930.94;;;22.11;80.69
45621;BME280;31345;51.522;10.702;2023-07-24T07:29:47;97921.09;;;21.98;80.91
45621;BME280;31345;51.522;10.702;2023-07-24T07:32:14;97926.44;;;22.19;79.69
45621;BME280;31345;51.522;10.702;2023-07-24T07:34:42;97921.69;;;22.28;80.56
45621;BME280;31345;51.522;10.702;2023-07-24T07:37:16;97930.91;;;22.25;80.14
45621;BME280;31345;51.522;10.702;2023-07-24T07:39:49;97925.41;;;22.20;77.80
45621;BME280;31345;51.522;10.702;2023-07-24T07:42:21;97929.28;;;22.24;79.53
45621;BME280;31345;51.522;10.702;2023-07-24T07:44:49;97928.47;;;22.44;78.51
45621;BME280;31345;51.522;10.702;2023-07-24T07:47:22;97930.31;;;22.57;77.53
45621;BME280;31345;51.522;10.702;2023-07-24T07:49:49;97927.16;;;22.87;78.48
45621;BME280;31345;51.522;10.702;2023-07-24T07:52:18;97922.31;;;23.16;73.76
45621;BME280;31345;51.522;10.702;2023-07-24T07:54:48;97920.66;;;23.22;74.68
45621;BME280;31345;51.522;10.702;2023-07-24T07:57:15;97925.75;;;23.37;75.32
45621;BME280;31345;51.522;10.702;2023-07-24T07:59:48;97924.38;;;23.60;72.29
45621;BME280;31345;51.522;10.702;2023-07-24T08:02:21;97910.13;;;23.40;71.69
45621;BME280;31345;51.522;10.702;2023-07-24T08:04:48;97906.13;;;23.57;74.30
45621;BME280;31345;51.522;10.702;2023-07-24T08:07:16;97905.34;;;23.56;70.95
45621;BME280;31345;51.522;10.702;2023-07-24T08:09:46;97903.72;;;23.48;70.40
45621;BME280;31345;51.522;10.702;2023-07-24T08:12:14;97910.25;;;23.52;71.48
45621;BME280;31345;51.522;10.702;2023-07-24T08:14:46;97899.84;;;23.44;69.65
45621;BME280;31345;51.522;10.702;2023-07-24T08:17:19;97898.56;;;23.53;70.09
45621;BME280;31345;51.522;10.702;2023-07-24T08:19:47;97894.66;;;23.56;70.50
45621;BME280;31345;51.522;10.702;2023-07-24T08:22:14;97893.66;;;23.83;70.31
45621;BME280;31345;51.522;10.702;2023-07-24T08:24:42;97893.94;;;24.00;68.73
45621;BME280;31345;51.522;10.702;2023-07-24T08:27:15;97891.16;;;24.13;66.46
45621;BME280;31345;51.522;10.702;2023-07-24T08:29:50;97882.94;;;24.15;67.51
45621;BME280;31345;51.522;10.702;2023-07-24T08:32:24;97889.84;;;24.23;67.37
45621;BME280;31345;51.522;10.702;2023-07-24T08:34:57;97901.47;;;24.54;66.69
45621;BME280;31345;51.522;10.702;2023-07-24T08:37:30;97891.16;;;24.76;63.22
45621;BME280;31345;51.522;10.702;2023-07-24T08:39:57;97898.75;;;24.98;63.01
45621;BME280;31345;51.522;10.702;2023-07-24T08:42:33;97896.09;;;24.98;63.81
45621;BME280;31345;51.522;10.702;2023-07-24T08:45:11;97890.94;;;24.40;64.89
45621;BME280;31345;51.522;10.702;2023-07-24T08:47:44;97895.47;;;24.14;65.43
45621;BME280;31345;51.522;10.702;2023-07-24T08:50:17;97894.00;;;23.93;65.85
45621;BME280;31345;51.522;10.702;2023-07-24T08:52:45;97891.63;;;23.78;67.12
45621;BME280;31345;51.522;10.702;2023-07-24T08:55:19;97875.56;;;23.85;64.82
45621;BME280;31345;51.522;10.702;2023-07-24T08:57:49;97890.22;;;23.75;65.12
45621;BME280;31345;51.522;10.702;2023-07-24T09:00:17;97888.59;;;23.74;65.15
45621;BME280;31345;51.522;10.702;2023-07-24T09:02:45;97892.09;;;23.68;65.06
45621;BME280;31345;51.522;10.702;2023-07-24T09:05:12;97887.97;;;23.72;65.81
45621;BME280;31345;51.522;10.702;2023-07-24T09:07:41;97889.09;;;23.90;66.12
45621;BME280;31345;51.522;10.702;2023-07-24T09:10:14;97897.81;;;24.29;66.42
45621;BME280;31345;51.522;10.702;2023-07-24T09:12:49;97883.50;;;24.61;64.17
45621;BME280;31345;51.522;10.702;2023-07-24T09:15:16;97878.69;;;24.51;64.75
45621;BME280;31345;51.522;10.702;2023-07-24T09:17:49;97886.56;;;24.46;63.52
45621;BME280;31345;51.522;10.702;2023-07-24T09:20:22;97891.06;;;24.46;64.33
45621;BME280;31345;51.522;10.702;2023-07-24T09:22:50;97882.16;;;24.70;64.08
45621;BME280;31345;51.522;10.702;2023-07-24T09:25:30;97882.84;;;24.66;63.02
45621;BME280;31345;51.522;10.702;2023-07-24T09:28:10;97873.66;;;24.62;63.10
45621;BME280;31345;51.522;10.702;2023-07-24T09:30:38;97876.31;;;24.62;64.81
45621;BME280;31345;51.522;10.702;2023-07-24T09:33:11;97874.19;;;24.89;61.64
45621;BME280;31345;51.522;10.702;2023-07-24T09:35:39;97866.44;;;24.81;59.32
45621;BME280;31345;51.522;10.702;2023-07-24T09:38:08;97869.63;;;24.52;61.84
45621;BME280;31345;51.522;10.702;2023-07-24T09:40:42;97864.31;;;24.90;61.85
45621;BME280;31345;51.522;10.702;2023-07-24T09:43:20;97864.00;;;24.98;62.45
45621;BME280;31345;51.522;10.702;2023-07-24T09:45:54;97854.13;;;25.29;59.36
45621;BME280;31345;51.522;10.702;2023-07-24T09:48:23;97849.16;;;25.14;60.65
45621;BME280;31345;51.522;10.702;2023-07-24T09:50:53;97846.72;;;25.13;59.23
45621;BME280;31345;51.522;10.702;2023-07-24T09:53:33;97843.38;;;24.87;60.93
45621;BME280;31345;51.522;10.702;2023-07-24T09:56:11;97837.63;;;25.02;61.31
45621;BME280;31345;51.522;10.702;2023-07-24T09:58:44;97831.84;;;25.48;58.35
45621;BME280;31345;51.522;10.702;2023-07-24T10:01:20;97827.63;;;25.40;57.35
45621;BME280;31345;51.522;10.702;2023-07-24T10:03:49;97831.81;;;25.36;57.11
45621;BME280;31345;51.522;10.702;2023-07-24T10:06:18;97827.44;;;25.23;60.29
45621;BME280;31345;51.522;10.702;2023-07-24T10:08:47;97834.34;;;25.30;59.58
45621;BME280;31345;51.522;10.702;2023-07-24T10:11:20;97832.00;;;25.22;60.93
45621;BME280;31345;51.522;10.702;2023-07-24T10:13:55;97820.66;;;25.51;60.72
45621;BME280;31345;51.522;10.702;2023-07-24T10:16:23;97824.56;;;25.79;60.53
45621;BME280;31345;51.522;10.702;2023-07-24T10:18:51;97814.34;;;26.35;57.24
45621;BME280;31345;51.522;10.702;2023-07-24T10:21:26;97812.75;;;26.64;56.32
45621;BME280;31345;51.522;10.702;2023-07-24T10:23:54;97811.56;;;26.71;56.10
45621;BME280;31345;51.522;10.702;2023-07-24T10:26:34;97801.22;;;26.92;55.09
45621;BME280;31345;51.522;10.702;2023-07-24T10:29:10;97778.78;;;26.81;54.61
45621;BME280;31345;51.522;10.702;2023-07-24T10:31:52;97780.34;;;26.94;55.01
45621;BME280;31345;51.522;10.702;2023-07-24T10:34:20;97770.44;;;26.95;55.01
45621;BME280;31345;51.522;10.702;2023-07-24T10:37:02;97763.06;;;27.02;54.11
45621;BME280;31345;51.522;10.702;2023-07-24T10:39:37;97776.13;;;27.62;54.58
45621;BME280;31345;51.522;10.702;2023-07-24T10:42:07;97762.56;;;27.05;54.01
45621;BME280;31345;51.522;10.702;2023-07-24T10:52:40;97771.81;;;25.55;57.52
45621;BME280;31345;51.522;10.702;2023-07-24T10:55:19;97764.25;;;25.52;57.10
45621;BME280;31345;51.522;10.702;2023-07-24T10:58:39;97758.97;;;25.21;58.38
45621;BME280;31345;51.522;10.702;2023-07-24T11:05:22;97788.97;;;24.93;58.92
45621;BME280;31345;51.522;10.702;2023-07-24T11:12:54;97797.28;;;25.03;57.41
45621;BME280;31345;51.522;10.702;2023-07-24T11:16:25;97787.53;;;24.97;55.76
45621;BME280;31345;51.522;10.702;2023-07-24T11:19:44;97778.16;;;24.88;58.57
45621;BME280;31345;51.522;10.702;2023-07-24T11:22:47;97791.66;;;24.93;57.61
45621;BME280;31345;51.522;10.702;2023-07-24T11:32:51;97774.44;;;25.31;56.57
45621;BME280;31345;51.522;10.702;2023-07-24T11:35:25;97770.28;;;25.36;55.19
45621;BME280;31345;51.522;10.702;2023-07-24T11:37:53;97781.31;;;25.27;55.74
45621;BME280;31345;51.522;10.702;2023-07-24T11:40:31;97772.00;;;25.18;55.00
45621;BME280;31345;51.522;10.702;2023-07-24T11:43:15;97766.69;;;25.42;54.00
45621;BME280;31345;51.522;10.702;2023-07-24T11:45:55;97749.94;;;25.46;52.50
45621;BME280;31345;51.522;10.702;2023-07-24T11:48:26;97755.00;;;25.24;55.41
45621;BME280;31345;51.522;10.702;2023-07-24T11:50:59;97764.75;;;25.18;55.54
45621;BME280;31345;51.522;10.702;2023-07-24T11:53:44;97777.41;;;24.99;55.37
45621;BME280;31345;51.522;10.702;2023-07-24T11:56:16;97767.25;;;24.89;55.16
45621;BME280;31345;51.522;10.702;2023-07-24T11:58:53;97764.94;;;24.93;55.64
45621;BME280;31345;51.522;10.702;2023-07-24T12:01:36;97759.19;;;25.20;55.64
45621;BME280;31345;51.522;10.702;2023-07-24T12:04:13;97754.56;;;25.27;55.00
45621;BME280;31345;51.522;10.702;2023-07-24T12:06:44;97754.47;;;25.46;55.03
45621;BME280;31345;51.522;10.702;2023-07-24T12:09:13;97717.72;;;25.89;53.42
45621;BME280;31345;51.522;10.702;2023-07-24T12:11:45;97733.06;;;26.18;51.80
45621;BME280;31345;51.522;10.702;2023-07-24T12:14:20;97720.56;;;26.23;50.86
45621;BME280;31345;51.522;10.702;2023-07-24T12:17:01;97723.00;;;26.25;50.70
45621;BME280;31345;51.522;10.702;2023-07-24T12:19:33;97717.91;;;26.11;52.06
45621;BME280;31345;51.522;10.702;2023-07-24T12:22:07;97725.44;;;26.27;52.61
45621;BME280;31345;51.522;10.702;2023-07-24T12:24:35;97719.25;;;26.50;52.64
45621;BME280;31345;51.522;10.702;2023-07-24T12:27:03;97708.19;;;26.34;52.39
45621;BME280;31345;51.522;10.702;2023-07-24T12:29:30;97711.75;;;26.52;51.21
45621;BME280;31345;51.522;10.702;2023-07-24T12:32:05;97714.72;;;26.39;51.43
45621;BME280;31345;51.522;10.702;2023-07-24T12:34:38;97699.81;;;26.43;52.12
45621;BME280;31345;51.522;10.702;2023-07-24T12:37:06;97712.53;;;26.23;53.09
45621;BME280;31345;51.522;10.702;2023-07-24T12:39:33;97702.91;;;26.10;53.52
45621;BME280;31345;51.522;10.702;2023-07-24T12:42:06;97692.13;;;26.22;52.80
45621;BME280;31345;51.522;10.702;2023-07-24T12:44:39;97701.22;;;26.21;51.62
45621;BME280;31345;51.522;10.702;2023-07-24T12:47:08;97689.22;;;26.24;51.40
45621;BME280;31345;51.522;10.702;2023-07-24T12:49:36;97687.75;;;26.57;50.20
45621;BME280;31345;51.522;10.702;2023-07-24T12:52:04;97669.09;;;26.80;50.80
45621;BME280;31345;51.522;10.702;2023-07-24T12:54:36;97678.19;;;26.79;49.95
45621;BME280;31345;51.522;10.702;2023-07-24T12:57:05;97669.34;;;26.95;50.47
45621;BME280;31345;51.522;10.702;2023-07-24T12:59:37;97668.13;;;26.86;48.84
45621;BME280;31345;51.522;10.702;2023-07-24T13:02:05;97672.06;;;26.66;49.03
45621;BME280;31345;51.522;10.702;2023-07-24T13:04:34;97667.06;;;26.41;49.43
45621;BME280;31345;51.522;10.702;2023-07-24T13:07:07;97660.03;;;26.52;49.81
45621;BME280;31345;51.522;10.702;2023-07-24T13:09:34;97657.56;;;26.79;48.62
45621;BME280;31345;51.522;10.702;2023-07-24T13:12:02;97651.06;;;26.75;48.95
45621;BME280;31345;51.522;10.702;2023-07-24T13:14:30;97654.97;;;26.67;48.49
45621;BME280;31345;51.522;10.702;2023-07-24T13:16:57;97642.59;;;26.83;47.84
45621;BME280;31345;51.522;10.702;2023-07-24T13:19:30;97643.09;;;26.80;48.69
45621;BME280;31345;51.522;10.702;2023-07-24T13:21:59;97645.34;;;26.88;48.65
45621;BME280;31345;51.522;10.702;2023-07-24T13:24:32;97637.75;;;27.15;47.25
45621;BME280;31345;51.522;10.702;2023-07-24T13:27:05;97635.31;;;27.30;45.91
45621;BME280;31345;51.522;10.702;2023-07-24T13:29:38;97627.38;;;27.80;46.03
45621;BME280;31345;51.522;10.702;2023-07-24T13:32:06;97616.16;;;27.83;43.93
45621;BME280;31345;51.522;10.702;2023-07-24T13:34:33;97624.38;;;27.99;46.31
45621;BME280;31345;51.522;10.702;2023-07-24T13:37:02;97630.22;;;27.73;44.55
45621;BME280;31345;51.522;10.702;2023-07-24T13:39:35;97622.59;;;27.43;44.04
45621;BME280;31345;51.522;10.702;2023-07-24T13:42:08;97615.25;;;26.81;44.91
45621;BME280;31345;51.522;10.702;2023-07-24T13:44:41;97618.81;;;26.41;47.38
45621;BME280;31345;51.522;10.702;2023-07-24T13:47:13;97611.03;;;26.39;47.25